Accueil
METAR-TAF:

METAR-TAF

Aéroports :

Aéroport de La Rochelle - île de Ré

La Rochelle, France

latitude: 46-10-45N, longitude: 1-11-43W, altitude: 23 m

Observation

Le bulletin a été fait il y a 37 minutes, à 01:00 UTC
Vent 8 kt de sud/sud-est
Température 2°C
Humidité 87%
Pression 1007 hPa
Visibilité: 7000 m

METAR: LFBH 210100Z AUTO 16008KT 7000 NSC 02/00 Q1007 NOSIG

Heure: 02:37 (01:37 UTC)

Prévision

Le bulletin a été fait il y a 2 heures et 37 minutes, à 23:00 UTC
Prévision valable du 21 à 00 UTC au 21 à 24 UTC
Vent 2 kt de direction variable
Visibilité 10 km ou plus
pas de nuages en-dessous de 1500 mètres et pas de cumulonimbus.
Evoluant progressivement
du 21 à 00 UTC au 21 à 02 UTC
Vent 10 kt de est/sud-est

TAF: LFBH 202300Z 2100/2124 VRB02KT CAVOK BECMG 2100/2102 11010KT

Observations et prévisions météorologiques de plus de 4000 aéroports (messages METAR et TAF).

Les stations disponibles sont représentées par des disques jaunes et rouges sur la carte.

Passer la souris dessus pour voir le nom de la station.

Cliquer dessus pour voir les observations et prévisions météorologiques.

Pour changer de carte: cliquez sur les boutons verts avec une croix noire pour zoomer, sur le bouton vert avec un tiret pour effectuer un zoom arrière, ou sur les flèches vertes pour les cartes adjacentes.


METAR-TAF: